Time;durP1;ratioP1;P1;durP2;ratioP2;P2;SDS_P1;SDS_P2;PMS_P1;PMS_P2;Temp;Humidity;BMP_temperature;BMP_pressure;BME280_temperature;BME280_humidity;BME280_pressure;Samples;Min_cycle;Max_cycle;Signal;HPM_P1;HPM_P2
2024/01/23 00:01:03;;;;;;;1.23;0.50;;;17.50;45.80;;;;;;5086114;28;45404;-65
2024/01/23 00:03:33;;;;;;;0.60;0.60;;;17.50;45.90;;;;;;5088428;27;46523;-65
2024/01/23 00:05:59;;;;;;;0.40;0.40;;;17.40;45.80;;;;;;5092936;28;45281;-65
2024/01/23 00:08:26;;;;;;;0.75;0.60;;;17.40;45.80;;;;;;5092547;28;45277;-64
2024/01/23 00:10:53;;;;;;;0.43;0.43;;;17.40;45.80;;;;;;5092786;28;45268;-64
2024/01/23 00:13:20;;;;;;;0.90;0.50;;;17.40;45.80;;;;;;5092529;28;46532;-65
2024/01/23 00:15:47;;;;;;;0.40;0.40;;;17.40;45.90;;;;;;5092277;28;45361;-65
2024/01/23 00:18:14;;;;;;;0.55;0.50;;;17.30;45.80;;;;;;5092550;28;45344;-65
2024/01/23 00:20:42;;;;;;;0.40;0.40;;;17.30;45.70;;;;;;5092683;28;45300;-65
2024/01/23 00:23:09;;;;;;;0.70;0.50;;;17.30;45.90;;;;;;5092003;28;46269;-65
2024/01/23 00:25:36;;;;;;;0.60;0.60;;;17.30;45.90;;;;;;5092444;28;45383;-65
2024/01/23 00:28:04;;;;;;;0.38;0.38;;;17.30;45.90;;;;;;5092384;28;45269;-64
2024/01/23 00:30:30;;;;;;;1.60;0.50;;;17.30;46.00;;;;;;5092382;28;45474;-64
2024/01/23 00:32:57;;;;;;;0.50;0.50;;;17.30;45.80;;;;;;5092020;28;45344;-65
2024/01/23 00:35:24;;;;;;;0.82;0.40;;;17.20;45.90;;;;;;5092127;28;45379;-64
2024/01/23 00:37:52;;;;;;;1.17;0.68;;;17.20;45.90;;;;;;5092067;28;45291;-65
2024/01/23 00:40:19;;;;;;;1.55;0.30;;;17.20;46.00;;;;;;5092049;28;45403;-64
2024/01/23 00:42:46;;;;;;;0.52;0.50;;;17.20;45.90;;;;;;5091998;28;47720;-64
2024/01/23 00:45:12;;;;;;;0.73;0.50;;;17.10;45.90;;;;;;5091828;28;45464;-64
2024/01/23 00:47:39;;;;;;;0.30;0.30;;;17.10;45.90;;;;;;5091846;28;45388;-65
2024/01/23 00:50:07;;;;;;;0.98;0.40;;;17.10;45.90;;;;;;5091941;28;45397;-64
2024/01/23 00:52:34;;;;;;;0.75;0.50;;;17.10;45.80;;;;;;5091426;28;45551;-65
2024/01/23 00:55:04;;;;;;;0.70;0.50;;;17.10;45.80;;;;;;5091574;28;45253;-64
2024/01/23 00:57:32;;;;;;;0.75;0.30;;;17.00;45.80;;;;;;5091734;28;45458;-64
2024/01/23 00:59:58;;;;;;;1.33;0.70;;;17.00;45.90;;;;;;5091970;28;45187;-65
2024/01/23 01:02:25;;;;;;;0.75;0.50;;;17.00;45.80;;;;;;5091431;28;45416;-65
2024/01/23 01:04:52;;;;;;;0.40;0.40;;;17.00;45.90;;;;;;5091613;28;45295;-64
2024/01/23 01:07:19;;;;;;;0.40;0.40;;;17.00;45.90;;;;;;5091508;28;45332;-64
2024/01/23 01:09:46;;;;;;;0.65;0.50;;;16.90;45.80;;;;;;5091646;28;45320;-65
2024/01/23 01:12:14;;;;;;;0.65;0.43;;;16.90;45.90;;;;;;5091328;28;46483;-67
2024/01/23 01:14:41;;;;;;;0.60;0.60;;;16.90;45.90;;;;;;5089391;27;45311;-66
2024/01/23 01:17:07;;;;;;;0.50;0.43;;;16.90;45.90;;;;;;5088005;28;45269;-66
2024/01/23 01:19:34;;;;;;;1.30;0.40;;;16.90;46.10;;;;;;5088367;28;45422;-66
2024/01/23 01:22:01;;;;;;;0.70;0.52;;;16.90;46.00;;;;;;5087966;28;46326;-66
2024/01/23 01:24:28;;;;;;;0.98;0.43;;;16.80;45.90;;;;;;5087951;28;45253;-66
2024/01/23 01:26:55;;;;;;;1.08;0.50;;;16.80;46.10;;;;;;5088163;28;45290;-66
2024/01/23 01:29:23;;;;;;;0.50;0.50;;;16.80;46.10;;;;;;5087927;28;45400;-66
2024/01/23 01:31:50;;;;;;;1.10;0.30;;;16.80;46.00;;;;;;5088063;28;45402;-66
2024/01/23 01:34:17;;;;;;;1.08;0.43;;;16.80;46.10;;;;;;5087938;28;45308;-66
2024/01/23 01:36:44;;;;;;;1.38;0.50;;;16.70;46.40;;;;;;5088026;28;45212;-66
2024/01/23 01:39:12;;;;;;;1.80;0.85;;;16.70;46.40;;;;;;5088124;28;45425;-66
2024/01/23 01:41:39;;;;;;;0.75;0.57;;;16.70;46.20;;;;;;5086972;28;45789;-66
2024/01/23 01:44:07;;;;;;;0.63;0.63;;;16.70;46.10;;;;;;5087981;28;45405;-66
2024/01/23 01:46:35;;;;;;;0.70;0.50;;;16.70;46.10;;;;;;5087736;28;45311;-66
2024/01/23 01:49:02;;;;;;;2.53;0.50;;;16.70;46.20;;;;;;5087764;28;45415;-66
2024/01/23 01:51:30;;;;;;;0.80;0.60;;;16.60;46.20;;;;;;5087292;28;45409;-66
2024/01/23 01:53:57;;;;;;;1.23;0.60;;;16.60;46.20;;;;;;5087551;28;45372;-66
2024/01/23 01:56:24;;;;;;;0.82;0.57;;;16.60;46.20;;;;;;5087634;28;45336;-66
2024/01/23 01:58:51;;;;;;;0.88;0.43;;;16.60;46.30;;;;;;5087657;28;45446;-66
2024/01/23 02:01:19;;;;;;;0.40;0.40;;;16.60;46.20;;;;;;5087295;28;47376;-66
2024/01/23 02:03:47;;;;;;;0.77;0.52;;;16.60;46.30;;;;;;5087276;28;45402;-66
2024/01/23 02:06:14;;;;;;;1.75;0.50;;;16.60;46.20;;;;;;5087455;28;45393;-66
2024/01/23 02:08:41;;;;;;;1.25;0.40;;;16.60;46.20;;;;;;5087503;28;45436;-65
2024/01/23 02:11:08;;;;;;;0.52;0.50;;;16.50;46.10;;;;;;5086890;28;46578;-65
2024/01/23 02:13:35;;;;;;;0.50;0.50;;;16.50;46.10;;;;;;5087163;28;45338;-65
2024/01/23 02:16:02;;;;;;;0.95;0.50;;;16.50;46.10;;;;;;5087414;28;45313;-65
2024/01/23 02:18:29;;;;;;;0.50;0.50;;;16.50;46.20;;;;;;5087390;28;45313;-65
2024/01/23 02:20:57;;;;;;;0.80;0.40;;;16.50;46.10;;;;;;5086889;28;46311;-65
2024/01/23 02:23:28;;;;;;;0.60;0.60;;;16.50;46.20;;;;;;5086922;28;45373;-65
2024/01/23 02:25:55;;;;;;;0.60;0.50;;;16.50;46.20;;;;;;5086639;27;45256;-65
2024/01/23 02:28:22;;;;;;;1.10;0.50;;;16.40;46.20;;;;;;5087168;28;45415;-66
2024/01/23 02:30:49;;;;;;;0.98;0.65;;;16.40;46.20;;;;;;5086632;28;46375;-65
2024/01/23 02:33:16;;;;;;;0.73;0.73;;;16.40;46.20;;;;;;5086850;28;45395;-65
2024/01/23 02:35:42;;;;;;;0.50;0.50;;;16.40;46.20;;;;;;5087136;28;45323;-65
2024/01/23 02:38:09;;;;;;;0.25;0.25;;;16.40;46.20;;;;;;5087322;28;45285;-65
2024/01/23 02:40:37;;;;;;;0.45;0.45;;;16.40;46.20;;;;;;5086768;28;45621;-65
2024/01/23 02:43:04;;;;;;;1.13;0.68;;;16.40;46.20;;;;;;5086923;28;45410;-64
2024/01/23 02:45:31;;;;;;;0.50;0.40;;;16.30;46.20;;;;;;5086800;28;45464;-66
2024/01/23 02:47:58;;;;;;;0.47;0.47;;;16.30;46.20;;;;;;5086742;28;45371;-66
2024/01/23 02:50:26;;;;;;;0.40;0.40;;;16.30;46.20;;;;;;5086479;28;47284;-66
2024/01/23 02:52:53;;;;;;;0.80;0.60;;;16.30;46.20;;;;;;5086689;28;45252;-66
2024/01/23 02:55:20;;;;;;;2.10;0.82;;;16.30;46.30;;;;;;5086771;28;45393;-65
2024/01/23 02:57:48;;;;;;;0.63;0.63;;;16.20;46.30;;;;;;5087017;28;45361;-66
2024/01/23 03:00:16;;;;;;;1.40;0.65;;;16.20;46.40;;;;;;5086435;28;46293;-66
2024/01/23 03:02:43;;;;;;;1.65;0.50;;;16.20;46.30;;;;;;5086448;28;45185;-66
2024/01/23 03:05:09;;;;;;;0.40;0.40;;;16.20;46.40;;;;;;5086708;28;45415;-66
2024/01/23 03:07:36;;;;;;;0.43;0.43;;;16.10;46.40;;;;;;5086669;28;45449;-66
2024/01/23 03:10:04;;;;;;;0.98;0.50;;;16.10;46.40;;;;;;5086191;28;46301;-66
2024/01/23 03:12:31;;;;;;;0.60;0.50;;;16.10;46.40;;;;;;5086531;28;45365;-66
2024/01/23 03:14:59;;;;;;;0.80;0.70;;;16.10;46.30;;;;;;5086545;28;45257;-66
2024/01/23 03:17:26;;;;;;;0.73;0.52;;;16.10;46.40;;;;;;5086437;28;45411;-66
2024/01/23 03:19:53;;;;;;;0.40;0.40;;;16.10;46.30;;;;;;5086320;28;45368;-66
2024/01/23 03:22:20;;;;;;;1.80;0.57;;;16.00;46.30;;;;;;5086059;28;45284;-66
2024/01/23 03:24:47;;;;;;;0.60;0.60;;;16.00;46.30;;;;;;5086206;28;45321;-66
2024/01/23 03:27:13;;;;;;;0.70;0.47;;;16.00;46.30;;;;;;5086267;28;45283;-66
2024/01/23 03:29:41;;;;;;;1.25;0.70;;;16.00;46.30;;;;;;5085804;28;46682;-66
2024/01/23 03:32:09;;;;;;;0.70;0.55;;;16.00;46.30;;;;;;5085787;28;45327;-66
2024/01/23 03:34:36;;;;;;;1.20;0.77;;;15.90;46.30;;;;;;5086064;28;45277;-66
2024/01/23 03:37:03;;;;;;;1.42;0.57;;;15.90;46.30;;;;;;5086213;28;45253;-66
2024/01/23 03:39:30;;;;;;;0.85;0.60;;;15.90;46.30;;;;;;5084830;28;46583;-66
2024/01/23 03:41:57;;;;;;;1.33;0.55;;;15.90;46.30;;;;;;5085358;28;45396;-66
2024/01/23 03:44:24;;;;;;;0.75;0.70;;;15.90;46.30;;;;;;5086138;28;45288;-66
2024/01/23 03:46:51;;;;;;;1.05;0.60;;;15.80;46.30;;;;;;5086203;28;45363;-66
2024/01/23 03:49:20;;;;;;;0.70;0.70;;;15.80;46.30;;;;;;5085359;28;47280;-66
2024/01/23 03:51:47;;;;;;;0.70;0.70;;;15.80;46.30;;;;;;5085605;28;45426;-66
2024/01/23 03:54:14;;;;;;;0.70;0.55;;;15.80;46.30;;;;;;5085791;28;45327;-66
2024/01/23 03:56:41;;;;;;;0.73;0.60;;;15.80;46.30;;;;;;5085944;28;45249;-66
2024/01/23 03:59:07;;;;;;;1.40;0.52;;;15.70;46.30;;;;;;5085578;28;46530;-66
2024/01/23 04:01:34;;;;;;;0.77;0.70;;;15.70;46.30;;;;;;5085614;28;45305;-66
2024/01/23 04:04:02;;;;;;;0.70;0.60;;;15.70;46.20;;;;;;5085707;28;45320;-66
2024/01/23 04:06:30;;;;;;;1.05;0.57;;;15.70;46.30;;;;;;5085829;28;45499;-66
2024/01/23 04:08:56;;;;;;;0.75;0.57;;;15.70;46.30;;;;;;5085228;28;46385;-66
2024/01/23 04:11:23;;;;;;;0.55;0.52;;;15.70;46.40;;;;;;5085276;28;45344;-66
2024/01/23 04:13:50;;;;;;;0.47;0.47;;;15.70;46.30;;;;;;5085571;28;45225;-66
2024/01/23 04:16:17;;;;;;;0.43;0.43;;;15.80;46.10;;;;;;5085577;28;45468;-66
2024/01/23 04:18:44;;;;;;;1.83;0.77;;;15.90;46.00;;;;;;5085094;28;46369;-66
2024/01/23 04:21:11;;;;;;;0.85;0.50;;;16.00;45.90;;;;;;5085218;28;45415;-66
2024/01/23 04:23:39;;;;;;;1.80;0.80;;;16.00;45.60;;;;;;5085327;28;45328;-66
2024/01/23 04:26:07;;;;;;;0.98;0.50;;;16.20;45.50;;;;;;5085620;28;45131;-66
2024/01/23 04:28:34;;;;;;;0.60;0.60;;;16.30;45.30;;;;;;5085141;28;45675;-66
2024/01/23 04:31:01;;;;;;;1.20;0.55;;;16.40;45.00;;;;;;5084920;28;45389;-66
2024/01/23 04:33:29;;;;;;;1.60;0.70;;;16.50;44.80;;;;;;5085256;28;45349;-66
2024/01/23 04:35:56;;;;;;;1.13;0.60;;;16.60;44.60;;;;;;5085347;28;45323;-66
2024/01/23 04:38:23;;;;;;;0.40;0.40;;;16.70;44.30;;;;;;5084891;28;46365;-66
2024/01/23 04:40:51;;;;;;;0.82;0.52;;;16.80;44.10;;;;;;5084702;28;45335;-66
2024/01/23 04:43:18;;;;;;;0.40;0.40;;;16.90;43.90;;;;;;5085174;28;45384;-66
2024/01/23 04:45:45;;;;;;;1.30;0.50;;;17.00;43.60;;;;;;5085270;28;45546;-67
2024/01/23 04:48:12;;;;;;;1.25;0.50;;;17.10;43.50;;;;;;5084750;28;45371;-66
2024/01/23 04:50:39;;;;;;;0.50;0.50;;;17.20;43.20;;;;;;5087739;27;45386;-66
2024/01/23 04:53:06;;;;;;;1.20;0.30;;;17.30;43.10;;;;;;5088609;28;45390;-66
2024/01/23 04:55:33;;;;;;;0.82;0.65;;;17.40;42.90;;;;;;5088729;28;45326;-66
2024/01/23 04:58:01;;;;;;;0.90;0.45;;;17.50;42.70;;;;;;5088245;28;46363;-66
2024/01/23 05:00:28;;;;;;;0.52;0.50;;;17.60;42.60;;;;;;5088177;28;45324;-66
2024/01/23 05:02:54;;;;;;;0.88;0.52;;;17.70;42.40;;;;;;5088444;28;45390;-66
2024/01/23 05:05:21;;;;;;;0.88;0.40;;;17.80;42.30;;;;;;5088751;28;45209;-66
2024/01/23 05:07:48;;;;;;;0.47;0.47;;;17.80;42.10;;;;;;5088080;28;46391;-66
2024/01/23 05:10:15;;;;;;;0.57;0.32;;;17.90;42.10;;;;;;5088079;28;45208;-66
2024/01/23 05:12:42;;;;;;;0.30;0.30;;;18.00;41.90;;;;;;5088167;28;45362;-66
2024/01/23 05:15:10;;;;;;;1.30;0.60;;;18.00;41.80;;;;;;5088372;28;45379;-66
2024/01/23 05:17:37;;;;;;;0.75;0.65;;;18.10;41.70;;;;;;5087852;28;46601;-66
2024/01/23 05:20:05;;;;;;;1.33;0.70;;;18.10;41.60;;;;;;5088169;28;45251;-66
2024/01/23 05:22:32;;;;;;;0.50;0.40;;;18.20;41.50;;;;;;5088273;28;45336;-66
2024/01/23 05:24:59;;;;;;;0.35;0.35;;;18.30;41.50;;;;;;5088342;28;45299;-66
2024/01/23 05:27:26;;;;;;;0.75;0.45;;;18.30;41.40;;;;;;5087821;28;46390;-65
2024/01/23 05:29:53;;;;;;;1.70;0.60;;;18.30;41.30;;;;;;5087726;28;45332;-65
2024/01/23 05:32:21;;;;;;;0.50;0.50;;;18.40;41.20;;;;;;5087808;28;45243;-65
2024/01/23 05:34:48;;;;;;;0.93;0.57;;;18.40;41.20;;;;;;5088118;28;45441;-65
2024/01/23 05:37:15;;;;;;;0.50;0.43;;;18.50;41.10;;;;;;5087368;28;46210;-65
2024/01/23 05:39:42;;;;;;;0.47;0.32;;;18.50;41.00;;;;;;5087669;28;45269;-65
2024/01/23 05:42:08;;;;;;;0.40;0.40;;;18.50;41.00;;;;;;5087532;28;45282;-65
2024/01/23 05:44:35;;;;;;;0.52;0.40;;;18.60;40.90;;;;;;5088077;28;45400;-65
2024/01/23 05:47:02;;;;;;;0.73;0.43;;;18.60;41.50;;;;;;5087498;28;45403;-65
2024/01/23 05:49:31;;;;;;;0.43;0.32;;;18.60;40.80;;;;;;5087424;28;45409;-65
2024/01/23 05:51:58;;;;;;;0.85;0.55;;;18.70;40.80;;;;;;5087487;28;45269;-65
2024/01/23 05:54:25;;;;;;;1.17;0.47;;;18.70;40.80;;;;;;5087734;28;45396;-65
2024/01/23 05:56:51;;;;;;;0.82;0.55;;;18.70;40.70;;;;;;5087478;28;47274;-65
2024/01/23 05:59:18;;;;;;;1.27;0.50;;;18.70;40.70;;;;;;5087252;28;45336;-65
2024/01/23 06:01:45;;;;;;;1.20;0.50;;;18.80;40.90;;;;;;5086622;28;45391;-65
2024/01/23 06:04:12;;;;;;;1.90;0.65;;;18.80;40.60;;;;;;5087553;28;45404;-65
2024/01/23 06:06:43;;;;;;;0.47;0.30;;;18.80;40.50;;;;;;5087249;28;46280;-65
2024/01/23 06:09:10;;;;;;;0.65;0.60;;;18.90;40.50;;;;;;5087228;28;45386;-65
2024/01/23 06:11:38;;;;;;;0.55;0.55;;;18.90;40.50;;;;;;5087447;28;45313;-65
2024/01/23 06:14:04;;;;;;;0.70;0.55;;;18.90;40.50;;;;;;5087568;28;45423;-65
2024/01/23 06:16:31;;;;;;;1.80;0.50;;;18.90;40.50;;;;;;5087007;28;46361;-66
2024/01/23 06:18:58;;;;;;;0.93;0.75;;;18.90;40.40;;;;;;5086940;28;45387;-65
2024/01/23 06:21:25;;;;;;;0.77;0.70;;;19.00;40.40;;;;;;5087233;28;45430;-65
2024/01/23 06:23:53;;;;;;;1.33;0.60;;;19.00;40.40;;;;;;5087492;28;45494;-65
2024/01/23 06:26:20;;;;;;;1.17;0.50;;;19.00;40.30;;;;;;5086955;28;47336;-66
2024/01/23 06:28:47;;;;;;;0.55;0.50;;;19.00;40.30;;;;;;5087178;28;45470;-65
2024/01/23 06:31:14;;;;;;;1.20;0.70;;;19.10;40.90;;;;;;5086837;28;45425;-65
2024/01/23 06:33:41;;;;;;;1.20;0.52;;;19.10;40.30;;;;;;5087086;28;45339;-66
2024/01/23 06:36:08;;;;;;;0.38;0.32;;;19.10;40.20;;;;;;5086638;28;46410;-66
2024/01/23 06:38:35;;;;;;;0.65;0.35;;;19.10;40.20;;;;;;5086699;28;45253;-65
2024/01/23 06:41:03;;;;;;;1.10;0.50;;;19.10;40.20;;;;;;5086673;28;45305;-65
2024/01/23 06:43:30;;;;;;;0.68;0.60;;;19.10;40.20;;;;;;5086908;28;45409;-65
2024/01/23 06:45:57;;;;;;;3.40;0.60;;;19.20;40.20;;;;;;5086470;28;46362;-66
2024/01/23 06:48:24;;;;;;;2.15;0.60;;;19.20;40.10;;;;;;5086135;27;45485;-65
2024/01/23 06:50:51;;;;;;;1.83;0.70;;;19.20;40.20;;;;;;5088505;27;45314;-65
2024/01/23 06:53:17;;;;;;;0.95;0.50;;;19.20;40.20;;;;;;5082642;27;45464;-65
2024/01/23 06:55:44;;;;;;;1.92;0.60;;;19.20;40.20;;;;;;5080578;27;46386;-65
2024/01/23 06:58:13;;;;;;;3.03;0.50;;;19.20;40.20;;;;;;5083190;28;45344;-65
2024/01/23 07:00:40;;;;;;;1.40;0.70;;;19.30;40.20;;;;;;5081102;27;45380;-66
2024/01/23 07:03:08;;;;;;;2.08;0.77;;;19.30;40.10;;;;;;5082288;27;45363;-66
2024/01/23 07:05:34;;;;;;;2.35;0.70;;;19.30;40.10;;;;;;5081350;28;47310;-66
2024/01/23 07:08:01;;;;;;;0.82;0.60;;;19.30;40.10;;;;;;5083281;28;45439;-65
2024/01/23 07:10:28;;;;;;;1.83;0.70;;;19.30;40.10;;;;;;5083542;28;45327;-66
2024/01/23 07:12:55;;;;;;;1.15;0.52;;;19.30;40.10;;;;;;5080874;27;45475;-65
2024/01/23 07:15:23;;;;;;;0.88;0.70;;;19.30;40.00;;;;;;5083149;28;45623;-65
2024/01/23 07:17:51;;;;;;;2.40;0.47;;;19.30;40.00;;;;;;5083354;28;45435;-66
2024/01/23 07:20:18;;;;;;;0.40;0.40;;;19.40;40.10;;;;;;5082512;27;45288;-65
2024/01/23 07:22:45;;;;;;;0.60;0.60;;;19.40;40.10;;;;;;5082346;28;45248;-65
2024/01/23 07:25:12;;;;;;;1.08;0.75;;;19.40;40.00;;;;;;5081595;27;46370;-65
2024/01/23 07:27:39;;;;;;;2.38;0.63;;;19.40;40.00;;;;;;5082860;28;45276;-64
2024/01/23 07:30:06;;;;;;;0.93;0.70;;;19.40;40.00;;;;;;5079071;28;45375;-64
2024/01/23 07:32:35;;;;;;;0.85;0.70;;;19.50;40.00;;;;;;5081070;27;45292;-64
2024/01/23 07:35:01;;;;;;;0.77;0.40;;;19.40;40.00;;;;;;5082996;28;45746;-65
2024/01/23 07:37:28;;;;;;;0.47;0.47;;;19.40;39.90;;;;;;5082980;28;45436;-65
2024/01/23 07:39:55;;;;;;;0.60;0.50;;;19.50;40.00;;;;;;5082722;28;45527;-64
2024/01/23 07:42:22;;;;;;;2.22;0.40;;;19.50;40.00;;;;;;5080401;27;45324;-65
2024/01/23 07:44:49;;;;;;;1.15;0.75;;;19.50;40.00;;;;;;5082688;28;45281;-64
2024/01/23 07:47:16;;;;;;;2.47;0.60;;;19.50;39.90;;;;;;5082840;28;45415;-64
2024/01/23 07:49:44;;;;;;;1.98;0.73;;;19.50;39.90;;;;;;5082173;28;45509;-65
2024/01/23 07:52:10;;;;;;;0.80;0.60;;;19.50;39.90;;;;;;5077577;27;45583;-65
2024/01/23 07:54:37;;;;;;;2.72;0.90;;;19.50;39.80;;;;;;5082597;28;46398;-65
2024/01/23 07:57:05;;;;;;;2.83;0.70;;;19.50;39.80;;;;;;5082081;27;45644;-64
2024/01/23 07:59:31;;;;;;;1.55;0.80;;;19.60;39.90;;;;;;5082033;28;45438;-65
2024/01/23 08:01:58;;;;;;;1.73;0.57;;;19.50;39.80;;;;;;5079821;27;45475;-65
2024/01/23 08:04:25;;;;;;;1.63;0.60;;;19.50;39.90;;;;;;5082589;28;45318;-65
2024/01/23 08:06:54;;;;;;;1.85;0.88;;;19.50;39.90;;;;;;5081237;28;45453;-65
2024/01/23 08:09:21;;;;;;;1.23;0.70;;;19.50;40.00;;;;;;5082067;28;46644;-65
2024/01/23 08:11:48;;;;;;;0.68;0.68;;;19.50;40.00;;;;;;5078295;27;45416;-65
2024/01/23 08:14:15;;;;;;;0.75;0.50;;;19.50;40.00;;;;;;5081970;27;46371;-65
2024/01/23 08:16:44;;;;;;;2.88;0.95;;;19.50;40.10;;;;;;5080655;27;45425;-64
2024/01/23 08:19:11;;;;;;;0.80;0.47;;;19.50;40.30;;;;;;5074586;27;45459;-65
2024/01/23 08:21:38;;;;;;;3.25;0.77;;;19.50;40.20;;;;;;5078176;27;45442;-65
2024/01/23 08:24:06;;;;;;;1.92;0.90;;;19.50;40.30;;;;;;5081290;27;45582;-64
2024/01/23 08:26:33;;;;;;;3.10;0.90;;;19.40;40.30;;;;;;5085150;28;45272;-64
2024/01/23 08:29:00;;;;;;;2.55;0.95;;;19.50;40.50;;;;;;5083635;27;45417;-65
2024/01/23 08:31:27;;;;;;;1.55;0.85;;;19.40;40.40;;;;;;5082906;28;45233;-65
2024/01/23 08:33:54;;;;;;;2.97;1.15;;;19.40;40.60;;;;;;5084708;27;45731;-65
2024/01/23 08:36:21;;;;;;;1.65;1.13;;;19.40;40.70;;;;;;5087889;27;45578;-65
2024/01/23 08:38:47;;;;;;;2.38;1.02;;;19.40;40.70;;;;;;5086295;27;45554;-65
2024/01/23 08:41:15;;;;;;;1.90;0.80;;;19.40;40.80;;;;;;5084265;28;45395;-65
2024/01/23 08:43:42;;;;;;;1.42;0.70;;;19.30;40.90;;;;;;5084138;28;46758;-65
2024/01/23 08:46:09;;;;;;;1.85;1.00;;;19.30;40.80;;;;;;5084417;27;45462;-65
2024/01/23 08:48:36;;;;;;;3.88;1.10;;;19.30;40.90;;;;;;5081866;27;45581;-65
2024/01/23 08:51:04;;;;;;;1.40;1.13;;;19.30;40.90;;;;;;5086004;28;45457;-65
2024/01/23 08:53:31;;;;;;;1.25;1.15;;;19.30;40.90;;;;;;5080198;27;45485;-65
2024/01/23 08:55:58;;;;;;;2.38;1.20;;;19.30;41.00;;;;;;5084836;28;45315;-66
2024/01/23 08:58:26;;;;;;;1.80;1.17;;;19.30;41.00;;;;;;5084736;27;45513;-64
2024/01/23 09:00:53;;;;;;;1.58;0.80;;;19.20;41.00;;;;;;5084046;27;45292;-65
2024/01/23 09:03:21;;;;;;;2.58;1.10;;;19.20;41.00;;;;;;5081469;28;46448;-66
2024/01/23 09:05:48;;;;;;;1.10;0.98;;;19.20;41.20;;;;;;5084711;28;45838;-66
2024/01/23 09:08:15;;;;;;;2.72;1.10;;;19.10;41.20;;;;;;5084737;28;45488;-65
2024/01/23 09:10:42;;;;;;;2.17;1.02;;;19.10;41.30;;;;;;5085587;27;45492;-67
2024/01/23 09:13:09;;;;;;;2.00;1.27;;;19.10;41.50;;;;;;5081135;28;47863;-67
2024/01/23 09:15:37;;;;;;;3.45;1.40;;;19.10;41.40;;;;;;5084722;28;45325;-67
2024/01/23 09:18:05;;;;;;;2.30;1.05;;;19.10;41.40;;;;;;5084487;28;45489;-67
2024/01/23 09:20:32;;;;;;;1.25;1.10;;;19.20;41.20;;;;;;5084957;28;45645;-67
2024/01/23 09:22:59;;;;;;;3.53;1.70;;;19.20;41.20;;;;;;5081204;27;46260;-66
2024/01/23 09:25:25;;;;;;;2.65;1.30;;;19.30;41.10;;;;;;5084471;28;45482;-67
2024/01/23 09:27:52;;;;;;;1.90;1.17;;;19.40;41.00;;;;;;5084587;27;45463;-67
2024/01/23 09:30:19;;;;;;;2.85;1.40;;;19.40;40.90;;;;;;5084911;28;45339;-67
2024/01/23 09:32:47;;;;;;;2.78;1.38;;;19.60;40.80;;;;;;5087861;27;46357;-67
2024/01/23 09:35:14;;;;;;;1.73;0.95;;;19.60;40.60;;;;;;5098767;27;45472;-66
2024/01/23 09:37:41;;;;;;;1.65;1.20;;;19.70;40.60;;;;;;5087037;28;45245;-67
2024/01/23 09:40:09;;;;;;;2.05;0.95;;;19.70;40.40;;;;;;5087647;28;45542;-66
2024/01/23 09:42:37;;;;;;;2.20;0.90;;;19.80;40.30;;;;;;5087443;28;46385;-66
2024/01/23 09:45:09;;;;;;;1.83;1.27;;;19.90;40.20;;;;;;5087544;28;45253;-66
2024/01/23 09:47:35;;;;;;;2.42;1.50;;;19.90;40.10;;;;;;5087735;28;45313;-67
2024/01/23 09:50:04;;;;;;;4.50;1.42;;;20.00;40.10;;;;;;5087610;28;45320;-66
2024/01/23 09:52:31;;;;;;;2.08;1.15;;;20.00;40.00;;;;;;5087425;28;46588;-66
2024/01/23 09:54:58;;;;;;;2.15;1.30;;;20.10;39.90;;;;;;5087550;28;45347;-67
2024/01/23 09:57:25;;;;;;;1.95;1.30;;;20.10;39.80;;;;;;5087470;28;45408;-66
2024/01/23 09:59:52;;;;;;;2.70;1.40;;;20.10;39.70;;;;;;5087419;28;45344;-65
2024/01/23 10:02:19;;;;;;;4.68;1.63;;;20.20;39.70;;;;;;5087548;28;45328;-65
2024/01/23 10:04:46;;;;;;;2.92;1.30;;;20.20;39.60;;;;;;5095605;27;45348;-65
2024/01/23 10:07:14;;;;;;;1.95;1.30;;;20.20;39.60;;;;;;5090569;27;45376;-65
2024/01/23 10:09:46;;;;;;;1.60;1.02;;;20.30;39.60;;;;;;5090578;27;45356;-65
2024/01/23 10:12:13;;;;;;;2.95;1.27;;;20.30;39.70;;;;;;5107642;27;45310;-64
2024/01/23 10:14:42;;;;;;;2.80;1.40;;;20.30;39.80;;;;;;5072052;27;45441;-64
2024/01/23 10:17:09;;;;;;;8.52;2.15;;;20.30;40.00;;;;;;5066263;28;45555;-64
2024/01/23 10:19:36;;;;;;;3.55;1.52;;;20.30;39.80;;;;;;5067871;28;45631;-63
2024/01/23 10:22:04;;;;;;;3.10;1.90;;;20.30;39.80;;;;;;5090180;27;45325;-63
2024/01/23 10:24:32;;;;;;;6.38;1.65;;;20.40;39.70;;;;;;5086069;28;45378;-65
2024/01/23 10:26:59;;;;;;;11.35;2.20;;;20.40;39.70;;;;;;5085643;27;45340;-64
2024/01/23 10:29:26;;;;;;;9.98;1.95;;;20.50;39.70;;;;;;5088746;27;45285;-64
2024/01/23 10:31:53;;;;;;;6.97;1.90;;;20.50;39.70;;;;;;5087562;27;45379;-64
2024/01/23 10:34:20;;;;;;;6.72;2.00;;;20.50;39.60;;;;;;5085149;28;45422;-64
2024/01/23 10:36:47;;;;;;;5.60;1.80;;;20.60;39.80;;;;;;5086773;28;45490;-65
2024/01/23 10:39:14;;;;;;;6.63;1.80;;;20.60;39.60;;;;;;5086520;28;45428;-64
2024/01/23 10:41:43;;;;;;;4.07;1.60;;;20.70;39.40;;;;;;5085197;28;45475;-64
2024/01/23 10:44:10;;;;;;;5.63;1.70;;;20.70;39.40;;;;;;5086339;27;45309;-64
2024/01/23 10:46:36;;;;;;;6.38;1.90;;;20.70;39.40;;;;;;5102087;27;45318;-64
2024/01/23 10:49:03;;;;;;;5.45;1.60;;;20.70;39.30;;;;;;5085941;28;45507;-64
2024/01/23 10:51:31;;;;;;;8.10;1.77;;;20.80;39.50;;;;;;5085578;28;45343;-65
2024/01/23 10:54:01;;;;;;;4.47;1.85;;;20.90;39.30;;;;;;5086268;28;45392;-62
2024/01/23 10:56:29;;;;;;;6.10;1.95;;;21.00;39.20;;;;;;5086339;27;45273;-63
2024/01/23 10:59:00;;;;;;;9.73;1.95;;;21.00;39.20;;;;;;5086254;28;45267;-65
2024/01/23 11:01:27;;;;;;;10.77;2.72;;;21.10;39.00;;;;;;5085610;27;46198;-63
2024/01/23 11:03:54;;;;;;;5.63;2.35;;;21.00;39.20;;;;;;5086090;28;45465;-62
2024/01/23 11:06:23;;;;;;;10.15;2.63;;;20.80;39.50;;;;;;5097491;27;45462;-65
2024/01/23 11:08:53;;;;;;;5.65;2.10;;;20.60;39.70;;;;;;5089086;27;45505;-64
2024/01/23 11:11:25;;;;;;;5.13;2.15;;;20.50;40.00;;;;;;5089648;27;46727;-65
2024/01/23 11:13:53;;;;;;;5.07;1.95;;;20.40;40.20;;;;;;5090795;27;45515;-64
2024/01/23 11:16:21;;;;;;;8.07;2.38;;;20.50;40.20;;;;;;5085472;27;45314;-62
2024/01/23 11:18:49;;;;;;;5.78;2.38;;;20.60;40.30;;;;;;5086799;27;45466;-63
2024/01/23 11:21:17;;;;;;;5.20;2.13;;;20.60;40.50;;;;;;5085964;28;46590;-65
2024/01/23 11:23:44;;;;;;;14.85;3.08;;;20.50;40.40;;;;;;5085774;27;45494;-65
2024/01/23 11:26:16;;;;;;;6.85;3.08;;;20.50;40.70;;;;;;5096641;27;45422;-64
2024/01/23 11:28:44;;;;;;;5.15;2.20;;;20.40;40.50;;;;;;5085718;27;45322;-65
2024/01/23 11:31:13;;;;;;;13.30;2.55;;;20.30;40.70;;;;;;5093035;27;45457;-65
2024/01/23 11:33:42;;;;;;;7.57;2.95;;;20.40;40.70;;;;;;5094332;27;45545;-66
2024/01/23 11:36:10;;;;;;;4.50;2.42;;;20.40;40.70;;;;;;5083973;27;45294;-65
2024/01/23 11:38:44;;;;;;;5.93;2.58;;;20.40;40.60;;;;;;5085644;28;45575;-67
2024/01/23 11:41:16;;;;;;;10.88;2.58;;;20.30;40.70;;;;;;5084673;28;46546;-66
2024/01/23 11:43:43;;;;;;;5.22;2.20;;;20.30;40.90;;;;;;5091377;27;45406;-66
2024/01/23 11:46:13;;;;;;;8.60;2.28;;;20.20;41.10;;;;;;5089325;27;45475;-67
2024/01/23 11:48:42;;;;;;;6.93;2.40;;;20.10;41.10;;;;;;5085524;28;45382;-66
2024/01/23 11:51:09;;;;;;;6.22;2.20;;;20.00;41.20;;;;;;5085335;28;45277;-66
2024/01/23 11:53:36;;;;;;;3.75;2.03;;;20.00;41.40;;;;;;5084983;28;45268;-65
2024/01/23 11:56:03;;;;;;;4.57;2.55;;;19.90;41.60;;;;;;5085475;28;45278;-66
2024/01/23 11:58:31;;;;;;;6.22;2.42;;;19.90;42.10;;;;;;5084970;28;45529;-65
2024/01/23 12:00:58;;;;;;;7.05;2.60;;;19.80;41.50;;;;;;5084906;28;46313;-66
2024/01/23 12:03:25;;;;;;;5.35;2.38;;;19.80;41.70;;;;;;5084658;28;45326;-65
2024/01/23 12:05:54;;;;;;;6.47;2.50;;;19.80;41.70;;;;;;5085486;28;45275;-65
2024/01/23 12:08:20;;;;;;;10.13;2.25;;;19.90;41.70;;;;;;5085495;28;45304;-66
2024/01/23 12:10:47;;;;;;;5.10;2.55;;;19.90;41.60;;;;;;5084979;28;47256;-66
2024/01/23 12:13:14;;;;;;;5.78;2.28;;;20.00;41.50;;;;;;5085019;28;45267;-65
2024/01/23 12:15:41;;;;;;;6.97;2.22;;;20.00;41.40;;;;;;5085345;28;45352;-66
2024/01/23 12:18:08;;;;;;;4.97;2.42;;;20.10;41.30;;;;;;5085349;28;45431;-66
2024/01/23 12:20:35;;;;;;;3.53;2.35;;;20.20;41.30;;;;;;5084874;28;45419;-66
2024/01/23 12:23:04;;;;;;;5.95;2.13;;;20.30;41.10;;;;;;5085493;28;45289;-66
2024/01/23 12:25:30;;;;;;;4.25;2.35;;;20.30;41.00;;;;;;5085419;28;45289;-66
2024/01/23 12:28:00;;;;;;;4.30;2.60;;;20.40;41.00;;;;;;5085111;28;45513;-66
2024/01/23 12:30:27;;;;;;;5.22;2.55;;;20.40;41.00;;;;;;5084474;28;47547;-66
2024/01/23 12:32:56;;;;;;;5.40;2.15;;;20.50;40.90;;;;;;5085418;28;45378;-66
2024/01/23 12:35:23;;;;;;;5.82;2.33;;;20.50;40.90;;;;;;5085323;28;45229;-65
2024/01/23 12:37:51;;;;;;;7.60;2.33;;;20.50;40.90;;;;;;5085459;28;45408;-65
2024/01/23 12:40:20;;;;;;;4.90;2.58;;;20.50;41.00;;;;;;5085127;28;45518;-66
2024/01/23 12:42:47;;;;;;;6.50;2.55;;;20.50;41.40;;;;;;5085398;28;45581;-66
2024/01/23 12:45:14;;;;;;;4.30;2.00;;;20.50;41.30;;;;;;5085443;28;45336;-66